sensor_id;sensor_type;location;lat;lon;timestamp;temperature;humidity
65396;HTU21D;52004;45.136;39.010;2022-12-18T00:01:37;9.04;73.57
65396;HTU21D;52004;45.136;39.010;2022-12-18T00:04:04;9.02;73.55
65396;HTU21D;52004;45.136;39.010;2022-12-18T00:06:30;9.00;73.58
65396;HTU21D;52004;45.136;39.010;2022-12-18T00:08:58;8.97;73.57
65396;HTU21D;52004;45.136;39.010;2022-12-18T00:11:25;8.95;73.51
65396;HTU21D;52004;45.136;39.010;2022-12-18T00:13:53;8.94;73.44
65396;HTU21D;52004;45.136;39.010;2022-12-18T00:16:20;8.94;73.40
65396;HTU21D;52004;45.136;39.010;2022-12-18T00:18:47;8.90;73.41
65396;HTU21D;52004;45.136;39.010;2022-12-18T00:21:13;8.86;73.41
65396;HTU21D;52004;45.136;39.010;2022-12-18T00:23:40;8.81;73.39
65396;HTU21D;52004;45.136;39.010;2022-12-18T00:26:10;8.77;73.41
65396;HTU21D;52004;45.136;39.010;2022-12-18T00:28:36;8.74;73.40
65396;HTU21D;52004;45.136;39.010;2022-12-18T00:31:02;8.67;73.44
65396;HTU21D;52004;45.136;39.010;2022-12-18T00:33:28;8.63;73.48
65396;HTU21D;52004;45.136;39.010;2022-12-18T00:35:59;8.58;73.52
65396;HTU21D;52004;45.136;39.010;2022-12-18T00:38:25;8.53;73.56
65396;HTU21D;52004;45.136;39.010;2022-12-18T00:40:51;8.49;73.57
65396;HTU21D;52004;45.136;39.010;2022-12-18T00:43:17;8.46;73.61
65396;HTU21D;52004;45.136;39.010;2022-12-18T00:45:43;8.46;73.59
65396;HTU21D;52004;45.136;39.010;2022-12-18T00:48:09;8.43;73.54
65396;HTU21D;52004;45.136;39.010;2022-12-18T00:50:35;8.42;73.52
65396;HTU21D;52004;45.136;39.010;2022-12-18T00:53:01;8.38;73.54
65396;HTU21D;52004;45.136;39.010;2022-12-18T00:55:27;8.37;73.54
65396;HTU21D;52004;45.136;39.010;2022-12-18T00:57:53;8.33;73.52
65396;HTU21D;52004;45.136;39.010;2022-12-18T01:00:19;8.29;73.52
65396;HTU21D;52004;45.136;39.010;2022-12-18T01:02:45;8.23;73.52
65396;HTU21D;52004;45.136;39.010;2022-12-18T01:05:11;8.17;73.59
65396;HTU21D;52004;45.136;39.010;2022-12-18T01:07:38;8.11;73.71
65396;HTU21D;52004;45.136;39.010;2022-12-18T01:10:04;8.04;73.78
65396;HTU21D;52004;45.136;39.010;2022-12-18T01:12:30;8.03;73.89
65396;HTU21D;52004;45.136;39.010;2022-12-18T01:14:56;8.00;73.99
65396;HTU21D;52004;45.136;39.010;2022-12-18T01:17:22;7.98;74.06
65396;HTU21D;52004;45.136;39.010;2022-12-18T01:19:48;7.99;74.12
65396;HTU21D;52004;45.136;39.010;2022-12-18T01:22:14;8.01;74.13
65396;HTU21D;52004;45.136;39.010;2022-12-18T01:24:40;8.01;74.11
65396;HTU21D;52004;45.136;39.010;2022-12-18T01:27:06;8.04;74.02
65396;HTU21D;52004;45.136;39.010;2022-12-18T01:29:32;8.06;73.96
65396;HTU21D;52004;45.136;39.010;2022-12-18T01:31:58;8.11;73.78
65396;HTU21D;52004;45.136;39.010;2022-12-18T01:34:24;8.08;73.70
65396;HTU21D;52004;45.136;39.010;2022-12-18T01:36:50;8.05;73.76
65396;HTU21D;52004;45.136;39.010;2022-12-18T01:39:17;8.04;73.86
65396;HTU21D;52004;45.136;39.010;2022-12-18T01:41:44;8.02;73.93
65396;HTU21D;52004;45.136;39.010;2022-12-18T01:47:38;8.00;73.99
65396;HTU21D;52004;45.136;39.010;2022-12-18T01:50:10;7.97;74.06
65396;HTU21D;52004;45.136;39.010;2022-12-18T01:52:37;7.97;74.06
65396;HTU21D;52004;45.136;39.010;2022-12-18T01:55:06;7.98;74.01
65396;HTU21D;52004;45.136;39.010;2022-12-18T01:57:32;7.98;73.92
65396;HTU21D;52004;45.136;39.010;2022-12-18T02:00:05;7.98;73.88
65396;HTU21D;52004;45.136;39.010;2022-12-18T02:02:39;7.94;73.86
65396;HTU21D;52004;45.136;39.010;2022-12-18T02:05:05;7.92;73.90
65396;HTU21D;52004;45.136;39.010;2022-12-18T02:07:42;7.89;73.98
65396;HTU21D;52004;45.136;39.010;2022-12-18T02:10:37;7.88;74.01
65396;HTU21D;52004;45.136;39.010;2022-12-18T02:13:09;7.89;74.01
65396;HTU21D;52004;45.136;39.010;2022-12-18T02:15:47;7.90;73.94
65396;HTU21D;52004;45.136;39.010;2022-12-18T02:18:19;7.92;73.86
65396;HTU21D;52004;45.136;39.010;2022-12-18T02:28:28;7.77;74.04
65396;HTU21D;52004;45.136;39.010;2022-12-18T02:30:59;7.74;74.15
65396;HTU21D;52004;45.136;39.010;2022-12-18T02:33:27;7.74;74.23
65396;HTU21D;52004;45.136;39.010;2022-12-18T02:35:55;7.75;74.26
65396;HTU21D;52004;45.136;39.010;2022-12-18T02:38:23;7.78;74.33
65396;HTU21D;52004;45.136;39.010;2022-12-18T02:40:51;7.81;74.44
65396;HTU21D;52004;45.136;39.010;2022-12-18T02:43:19;7.87;74.49
65396;HTU21D;52004;45.136;39.010;2022-12-18T02:45:46;7.92;74.52
65396;HTU21D;52004;45.136;39.010;2022-12-18T02:48:13;7.98;74.51
65396;HTU21D;52004;45.136;39.010;2022-12-18T02:50:44;8.04;74.41
65396;HTU21D;52004;45.136;39.010;2022-12-18T02:53:18;8.08;74.25
65396;HTU21D;52004;45.136;39.010;2022-12-18T02:56:03;8.14;74.12
65396;HTU21D;52004;45.136;39.010;2022-12-18T03:03:51;8.08;73.90
65396;HTU21D;52004;45.136;39.010;2022-12-18T03:06:23;8.04;73.91
65396;HTU21D;52004;45.136;39.010;2022-12-18T03:08:51;8.01;73.99
65396;HTU21D;52004;45.136;39.010;2022-12-18T03:11:18;7.98;74.04
65396;HTU21D;52004;45.136;39.010;2022-12-18T03:14:06;7.99;74.06
65396;HTU21D;52004;45.136;39.010;2022-12-18T03:16:33;8.01;74.16
65396;HTU21D;52004;45.136;39.010;2022-12-18T03:19:01;8.09;74.40
65396;HTU21D;52004;45.136;39.010;2022-12-18T03:21:29;8.26;74.62
65396;HTU21D;52004;45.136;39.010;2022-12-18T03:23:58;8.45;74.70
65396;HTU21D;52004;45.136;39.010;2022-12-18T03:26:26;8.65;74.64
65396;HTU21D;52004;45.136;39.010;2022-12-18T03:28:58;8.86;74.60
65396;HTU21D;52004;45.136;39.010;2022-12-18T03:31:26;9.03;74.54
65396;HTU21D;52004;45.136;39.010;2022-12-18T03:33:55;9.19;74.39
65396;HTU21D;52004;45.136;39.010;2022-12-18T03:36:28;9.35;74.29
65396;HTU21D;52004;45.136;39.010;2022-12-18T03:38:57;9.46;74.19
65396;HTU21D;52004;45.136;39.010;2022-12-18T03:41:45;0.00;74.12
65396;HTU21D;52004;45.136;39.010;2022-12-18T03:47:12;9.75;74.22
65396;HTU21D;52004;45.136;39.010;2022-12-18T03:54:43;9.99;73.92
65396;HTU21D;52004;45.136;39.010;2022-12-18T03:57:15;10.03;73.87
65396;HTU21D;52004;45.136;39.010;2022-12-18T03:59:42;10.09;73.89
65396;HTU21D;52004;45.136;39.010;2022-12-18T04:02:10;10.11;73.83
65396;HTU21D;52004;45.136;39.010;2022-12-18T04:04:37;10.14;73.76
65396;HTU21D;52004;45.136;39.010;2022-12-18T04:07:04;10.14;73.77
65396;HTU21D;52004;45.136;39.010;2022-12-18T04:09:33;10.16;73.83
65396;HTU21D;52004;45.136;39.010;2022-12-18T04:11:59;10.20;73.92
65396;HTU21D;52004;45.136;39.010;2022-12-18T04:14:25;10.27;73.94
65396;HTU21D;52004;45.136;39.010;2022-12-18T04:16:54;10.33;73.89
65396;HTU21D;52004;45.136;39.010;2022-12-18T04:19:26;10.39;73.87
65396;HTU21D;52004;45.136;39.010;2022-12-18T04:21:53;10.42;73.83
65396;HTU21D;52004;45.136;39.010;2022-12-18T04:24:19;10.46;73.84
65396;HTU21D;52004;45.136;39.010;2022-12-18T04:26:56;10.53;73.92
65396;HTU21D;52004;45.136;39.010;2022-12-18T04:29:26;10.64;74.03
65396;HTU21D;52004;45.136;39.010;2022-12-18T04:31:52;10.75;73.95
65396;HTU21D;52004;45.136;39.010;2022-12-18T04:34:19;10.82;73.82
65396;HTU21D;52004;45.136;39.010;2022-12-18T04:36:51;10.85;73.61
65396;HTU21D;52004;45.136;39.010;2022-12-18T04:39:17;10.85;73.48
65396;HTU21D;52004;45.136;39.010;2022-12-18T04:41:44;10.81;73.40
65396;HTU21D;52004;45.136;39.010;2022-12-18T04:44:11;10.80;73.49
65396;HTU21D;52004;45.136;39.010;2022-12-18T04:46:37;10.80;73.59
65396;HTU21D;52004;45.136;39.010;2022-12-18T04:49:03;10.83;73.64
65396;HTU21D;52004;45.136;39.010;2022-12-18T04:51:29;10.86;73.65
65396;HTU21D;52004;45.136;39.010;2022-12-18T04:53:55;10.90;73.65
65396;HTU21D;52004;45.136;39.010;2022-12-18T04:56:21;10.94;73.67
65396;HTU21D;52004;45.136;39.010;2022-12-18T04:58:47;11.02;73.77
65396;HTU21D;52004;45.136;39.010;2022-12-18T05:01:15;11.09;73.69
65396;HTU21D;52004;45.136;39.010;2022-12-18T05:03:41;11.14;73.64
65396;HTU21D;52004;45.136;39.010;2022-12-18T05:06:07;11.22;73.63
65396;HTU21D;52004;45.136;39.010;2022-12-18T05:08:33;11.29;73.61
65396;HTU21D;52004;45.136;39.010;2022-12-18T05:11:03;0.00;73.50
65396;HTU21D;52004;45.136;39.010;2022-12-18T05:13:29;11.45;73.41
65396;HTU21D;52004;45.136;39.010;2022-12-18T05:15:55;11.54;73.41
65396;HTU21D;52004;45.136;39.010;2022-12-18T05:18:22;11.57;73.35
65396;HTU21D;52004;45.136;39.010;2022-12-18T05:20:49;11.61;73.32
65396;HTU21D;52004;45.136;39.010;2022-12-18T05:23:14;11.66;73.26
65396;HTU21D;52004;45.136;39.010;2022-12-18T05:25:40;11.68;73.26
65396;HTU21D;52004;45.136;39.010;2022-12-18T05:28:06;11.71;73.28
65396;HTU21D;52004;45.136;39.010;2022-12-18T05:30:58;11.75;73.27
65396;HTU21D;52004;45.136;39.010;2022-12-18T05:33:25;11.76;73.21
65396;HTU21D;52004;45.136;39.010;2022-12-18T05:35:52;11.81;73.25
65396;HTU21D;52004;45.136;39.010;2022-12-18T05:38:18;11.87;73.28
65396;HTU21D;52004;45.136;39.010;2022-12-18T05:40:44;11.94;73.32
65396;HTU21D;52004;45.136;39.010;2022-12-18T05:43:10;12.07;73.35
65396;HTU21D;52004;45.136;39.010;2022-12-18T05:45:37;12.19;73.48
65396;HTU21D;52004;45.136;39.010;2022-12-18T05:48:04;12.34;73.45
65396;HTU21D;52004;45.136;39.010;2022-12-18T05:50:29;12.47;73.44
65396;HTU21D;52004;45.136;39.010;2022-12-18T05:53:00;12.57;73.28
65396;HTU21D;52004;45.136;39.010;2022-12-18T05:55:26;12.64;73.26
65396;HTU21D;52004;45.136;39.010;2022-12-18T05:57:52;12.74;73.34
65396;HTU21D;52004;45.136;39.010;2022-12-18T06:00:18;12.90;73.67
65396;HTU21D;52004;45.136;39.010;2022-12-18T06:02:47;0.00;73.73
65396;HTU21D;52004;45.136;39.010;2022-12-18T06:05:13;13.25;73.92
65396;HTU21D;52004;45.136;39.010;2022-12-18T06:07:39;13.50;74.00
65396;HTU21D;52004;45.136;39.010;2022-12-18T06:10:06;13.73;73.92
65396;HTU21D;52004;45.136;39.010;2022-12-18T06:12:32;13.96;74.18
65396;HTU21D;52004;45.136;39.010;2022-12-18T06:14:59;14.25;74.26
65396;HTU21D;52004;45.136;39.010;2022-12-18T06:17:28;14.53;74.36
65396;HTU21D;52004;45.136;39.010;2022-12-18T06:19:55;14.85;74.57
65396;HTU21D;52004;45.136;39.010;2022-12-18T06:22:21;15.17;74.60
65396;HTU21D;52004;45.136;39.010;2022-12-18T06:24:47;15.42;74.38
65396;HTU21D;52004;45.136;39.010;2022-12-18T06:27:13;15.60;73.92
65396;HTU21D;52004;45.136;39.010;2022-12-18T06:29:39;15.65;73.28
65396;HTU21D;52004;45.136;39.010;2022-12-18T06:32:05;15.69;73.19
65396;HTU21D;52004;45.136;39.010;2022-12-18T06:34:31;15.78;73.35
65396;HTU21D;52004;45.136;39.010;2022-12-18T06:36:58;15.84;73.02
65396;HTU21D;52004;45.136;39.010;2022-12-18T06:39:24;15.80;72.51
65396;HTU21D;52004;45.136;39.010;2022-12-18T06:41:50;15.69;72.06
65396;HTU21D;52004;45.136;39.010;2022-12-18T06:44:16;15.57;71.90
65396;HTU21D;52004;45.136;39.010;2022-12-18T06:46:42;15.44;71.69
65396;HTU21D;52004;45.136;39.010;2022-12-18T06:49:08;15.33;71.56
65396;HTU21D;52004;45.136;39.010;2022-12-18T06:51:35;15.22;71.48
65396;HTU21D;52004;45.136;39.010;2022-12-18T06:54:01;15.12;71.40
65396;HTU21D;52004;45.136;39.010;2022-12-18T06:56:26;15.09;71.66
65396;HTU21D;52004;45.136;39.010;2022-12-18T06:58:53;15.12;71.72
65396;HTU21D;52004;45.136;39.010;2022-12-18T07:01:19;15.11;71.54
65396;HTU21D;52004;45.136;39.010;2022-12-18T07:03:45;15.08;71.29
65396;HTU21D;52004;45.136;39.010;2022-12-18T07:06:18;15.04;71.17
65396;HTU21D;52004;45.136;39.010;2022-12-18T07:08:45;15.00;71.13
65396;HTU21D;52004;45.136;39.010;2022-12-18T07:11:12;14.98;71.06
65396;HTU21D;52004;45.136;39.010;2022-12-18T07:13:38;14.95;71.01
65396;HTU21D;52004;45.136;39.010;2022-12-18T07:16:07;14.92;70.94
65396;HTU21D;52004;45.136;39.010;2022-12-18T07:18:34;14.89;70.89
65396;HTU21D;52004;45.136;39.010;2022-12-18T07:21:03;14.86;70.83
65396;HTU21D;52004;45.136;39.010;2022-12-18T07:23:31;14.86;70.77
65396;HTU21D;52004;45.136;39.010;2022-12-18T07:26:00;14.86;70.71
65396;HTU21D;52004;45.136;39.010;2022-12-18T07:28:26;14.86;70.69
65396;HTU21D;52004;45.136;39.010;2022-12-18T07:30:51;14.87;70.67
65396;HTU21D;52004;45.136;39.010;2022-12-18T07:33:17;14.87;70.67
65396;HTU21D;52004;45.136;39.010;2022-12-18T07:35:43;14.88;70.64
65396;HTU21D;52004;45.136;39.010;2022-12-18T07:38:10;14.92;70.64
65396;HTU21D;52004;45.136;39.010;2022-12-18T07:40:43;14.94;70.64
65396;HTU21D;52004;45.136;39.010;2022-12-18T07:43:09;14.98;70.64
65396;HTU21D;52004;45.136;39.010;2022-12-18T07:45:35;15.02;70.64
65396;HTU21D;52004;45.136;39.010;2022-12-18T07:48:01;15.07;70.60
65396;HTU21D;52004;45.136;39.010;2022-12-18T07:50:27;15.12;70.60
65396;HTU21D;52004;45.136;39.010;2022-12-18T07:52:53;15.17;70.56
65396;HTU21D;52004;45.136;39.010;2022-12-18T07:55:19;15.23;70.55
65396;HTU21D;52004;45.136;39.010;2022-12-18T07:57:45;15.31;70.53
65396;HTU21D;52004;45.136;39.010;2022-12-18T08:00:11;15.38;70.50
65396;HTU21D;52004;45.136;39.010;2022-12-18T08:02:40;15.48;70.38
65396;HTU21D;52004;45.136;39.010;2022-12-18T08:05:06;15.62;70.19
65396;HTU21D;52004;45.136;39.010;2022-12-18T08:07:32;15.71;70.10
65396;HTU21D;52004;45.136;39.010;2022-12-18T08:09:57;15.81;70.07
65396;HTU21D;52004;45.136;39.010;2022-12-18T08:12:23;15.88;69.94
65396;HTU21D;52004;45.136;39.010;2022-12-18T08:14:49;15.99;69.69
65396;HTU21D;52004;45.136;39.010;2022-12-18T08:17:15;16.05;69.59
65396;HTU21D;52004;45.136;39.010;2022-12-18T08:19:41;16.14;69.49
65396;HTU21D;52004;45.136;39.010;2022-12-18T08:22:07;16.24;69.33
65396;HTU21D;52004;45.136;39.010;2022-12-18T08:24:33;16.28;69.40
65396;HTU21D;52004;45.136;39.010;2022-12-18T08:26:59;16.34;69.55
65396;HTU21D;52004;45.136;39.010;2022-12-18T08:29:25;16.44;69.36
65396;HTU21D;52004;45.136;39.010;2022-12-18T08:31:51;16.52;69.25
65396;HTU21D;52004;45.136;39.010;2022-12-18T08:34:16;16.62;69.14
65396;HTU21D;52004;45.136;39.010;2022-12-18T08:36:43;16.72;69.12
65396;HTU21D;52004;45.136;39.010;2022-12-18T08:39:08;16.76;69.13
65396;HTU21D;52004;45.136;39.010;2022-12-18T08:41:34;16.84;69.07
65396;HTU21D;52004;45.136;39.010;2022-12-18T08:44:00;16.91;68.97
65396;HTU21D;52004;45.136;39.010;2022-12-18T08:46:44;16.99;68.84
65396;HTU21D;52004;45.136;39.010;2022-12-18T08:49:11;17.02;68.78
65396;HTU21D;52004;45.136;39.010;2022-12-18T08:51:37;17.06;68.78
65396;HTU21D;52004;45.136;39.010;2022-12-18T08:54:03;17.09;68.80
65396;HTU21D;52004;45.136;39.010;2022-12-18T08:56:29;17.13;68.76
65396;HTU21D;52004;45.136;39.010;2022-12-18T08:58:56;17.16;68.45
65396;HTU21D;52004;45.136;39.010;2022-12-18T09:01:22;17.17;68.39
65396;HTU21D;52004;45.136;39.010;2022-12-18T09:03:49;17.21;68.44
65396;HTU21D;52004;45.136;39.010;2022-12-18T09:06:15;17.25;68.39
65396;HTU21D;52004;45.136;39.010;2022-12-18T09:08:42;17.28;68.30
65396;HTU21D;52004;45.136;39.010;2022-12-18T09:11:15;17.31;68.27
65396;HTU21D;52004;45.136;39.010;2022-12-18T09:13:41;17.33;68.42
65396;HTU21D;52004;45.136;39.010;2022-12-18T09:16:07;17.38;68.53
65396;HTU21D;52004;45.136;39.010;2022-12-18T09:18:33;17.44;68.57
65396;HTU21D;52004;45.136;39.010;2022-12-18T09:20:59;17.48;68.55
65396;HTU21D;52004;45.136;39.010;2022-12-18T09:23:24;17.52;68.54
65396;HTU21D;52004;45.136;39.010;2022-12-18T09:25:50;17.53;68.42
65396;HTU21D;52004;45.136;39.010;2022-12-18T09:28:17;17.53;68.34
65396;HTU21D;52004;45.136;39.010;2022-12-18T09:30:45;17.51;68.21
65396;HTU21D;52004;45.136;39.010;2022-12-18T09:33:11;17.48;68.14
65396;HTU21D;52004;45.136;39.010;2022-12-18T09:35:37;17.44;68.09
65396;HTU21D;52004;45.136;39.010;2022-12-18T09:38:04;17.40;68.06
65396;HTU21D;52004;45.136;39.010;2022-12-18T09:40:33;17.35;68.08
65396;HTU21D;52004;45.136;39.010;2022-12-18T09:43:01;17.35;68.20
65396;HTU21D;52004;45.136;39.010;2022-12-18T09:45:29;17.35;68.21
65396;HTU21D;52004;45.136;39.010;2022-12-18T09:47:57;17.32;68.16
65396;HTU21D;52004;45.136;39.010;2022-12-18T09:50:24;17.31;68.13
65396;HTU21D;52004;45.136;39.010;2022-12-18T09:52:53;17.30;68.15
65396;HTU21D;52004;45.136;39.010;2022-12-18T09:57:47;17.32;68.24
65396;HTU21D;52004;45.136;39.010;2022-12-18T10:00:19;17.34;68.31
65396;HTU21D;52004;45.136;39.010;2022-12-18T10:02:45;17.34;68.26
65396;HTU21D;52004;45.136;39.010;2022-12-18T10:05:12;17.32;68.21
65396;HTU21D;52004;45.136;39.010;2022-12-18T10:07:42;17.32;68.13
65396;HTU21D;52004;45.136;39.010;2022-12-18T10:10:23;17.31;68.07
65396;HTU21D;52004;45.136;39.010;2022-12-18T10:12:56;17.26;67.97
65396;HTU21D;52004;45.136;39.010;2022-12-18T10:18:00;17.15;67.84
65396;HTU21D;52004;45.136;39.010;2022-12-18T10:20:38;17.09;67.81
65396;HTU21D;52004;45.136;39.010;2022-12-18T10:23:11;0.00;67.78
65396;HTU21D;52004;45.136;39.010;2022-12-18T10:28:15;0.00;67.64
65396;HTU21D;52004;45.136;39.010;2022-12-18T10:30:42;16.78;67.57
65396;HTU21D;52004;45.136;39.010;2022-12-18T10:33:22;16.65;67.56
65396;HTU21D;52004;45.136;39.010;2022-12-18T10:35:52;16.49;67.58
65396;HTU21D;52004;45.136;39.010;2022-12-18T10:43:19;16.07;67.89
65396;HTU21D;52004;45.136;39.010;2022-12-18T10:45:57;15.97;67.96
65396;HTU21D;52004;45.136;39.010;2022-12-18T10:48:23;15.86;68.04
65396;HTU21D;52004;45.136;39.010;2022-12-18T10:50:50;15.77;68.08
65396;HTU21D;52004;45.136;39.010;2022-12-18T10:53:21;0.00;68.13
65396;HTU21D;52004;45.136;39.010;2022-12-18T10:55:47;15.63;68.17
65396;HTU21D;52004;45.136;39.010;2022-12-18T10:58:30;15.56;68.17
65396;HTU21D;52004;45.136;39.010;2022-12-18T11:01:10;15.47;68.24
65396;HTU21D;52004;45.136;39.010;2022-12-18T11:03:46;15.40;68.30
65396;HTU21D;52004;45.136;39.010;2022-12-18T11:06:15;15.34;68.36
65396;HTU21D;52004;45.136;39.010;2022-12-18T11:08:43;15.28;68.38
65396;HTU21D;52004;45.136;39.010;2022-12-18T11:11:21;15.24;68.45
65396;HTU21D;52004;45.136;39.010;2022-12-18T11:13:57;15.19;68.48
65396;HTU21D;52004;45.136;39.010;2022-12-18T11:16:25;15.16;68.51
65396;HTU21D;52004;45.136;39.010;2022-12-18T11:18:52;15.12;68.52
65396;HTU21D;52004;45.136;39.010;2022-12-18T11:21:17;15.09;68.55
65396;HTU21D;52004;45.136;39.010;2022-12-18T11:23:50;15.08;68.57
65396;HTU21D;52004;45.136;39.010;2022-12-18T11:26:17;15.06;68.59
65396;HTU21D;52004;45.136;39.010;2022-12-18T11:28:47;15.01;68.63
65396;HTU21D;52004;45.136;39.010;2022-12-18T11:33:41;14.97;68.72
65396;HTU21D;52004;45.136;39.010;2022-12-18T11:36:08;14.96;68.75
65396;HTU21D;52004;45.136;39.010;2022-12-18T11:38:34;14.95;68.78
65396;HTU21D;52004;45.136;39.010;2022-12-18T11:43:56;14.91;68.84
65396;HTU21D;52004;45.136;39.010;2022-12-18T11:51:41;14.83;68.96
65396;HTU21D;52004;45.136;39.010;2022-12-18T11:54:14;14.81;69.00
65396;HTU21D;52004;45.136;39.010;2022-12-18T12:01:47;14.67;69.26
65396;HTU21D;52004;45.136;39.010;2022-12-18T12:06:50;14.57;69.49
65396;HTU21D;52004;45.136;39.010;2022-12-18T12:09:31;14.55;69.57
65396;HTU21D;52004;45.136;39.010;2022-12-18T12:14:49;14.47;69.64
65396;HTU21D;52004;45.136;39.010;2022-12-18T12:22:33;14.28;69.90
65396;HTU21D;52004;45.136;39.010;2022-12-18T12:27:39;14.18;70.07
65396;HTU21D;52004;45.136;39.010;2022-12-18T12:38:12;0.00;70.30
65396;HTU21D;52004;45.136;39.010;2022-12-18T12:40:42;14.06;70.36
65396;HTU21D;52004;45.136;39.010;2022-12-18T12:43:21;14.01;70.45
65396;HTU21D;52004;45.136;39.010;2022-12-18T12:46:03;13.96;70.53
65396;HTU21D;52004;45.136;39.010;2022-12-18T12:51:21;13.90;70.71
65396;HTU21D;52004;45.136;39.010;2022-12-18T12:53:50;13.86;70.69
65396;HTU21D;52004;45.136;39.010;2022-12-18T12:56:21;13.83;70.73
65396;HTU21D;52004;45.136;39.010;2022-12-18T13:01:49;13.73;70.75
65396;HTU21D;52004;45.136;39.010;2022-12-18T13:06:48;13.63;70.85
65396;HTU21D;52004;45.136;39.010;2022-12-18T13:09:16;13.60;70.87
65396;HTU21D;52004;45.136;39.010;2022-12-18T13:11:42;13.58;70.85
65396;HTU21D;52004;45.136;39.010;2022-12-18T13:14:37;13.50;70.88
65396;HTU21D;52004;45.136;39.010;2022-12-18T13:19:48;13.36;70.96
65396;HTU21D;52004;45.136;39.010;2022-12-18T13:24:59;13.25;71.08
65396;HTU21D;52004;45.136;39.010;2022-12-18T13:35:38;12.86;71.22
65396;HTU21D;52004;45.136;39.010;2022-12-18T13:46:49;12.51;71.56
65396;HTU21D;52004;45.136;39.010;2022-12-18T13:48:57;12.42;71.58
65396;HTU21D;52004;45.136;39.010;2022-12-18T13:51:24;12.30;71.67
65396;HTU21D;52004;45.136;39.010;2022-12-18T13:53:52;12.20;71.74
65396;HTU21D;52004;45.136;39.010;2022-12-18T13:56:23;12.12;71.78
65396;HTU21D;52004;45.136;39.010;2022-12-18T14:01:34;0.00;71.93
65396;HTU21D;52004;45.136;39.010;2022-12-18T14:04:09;11.86;71.96
65396;HTU21D;52004;45.136;39.010;2022-12-18T14:06:35;11.74;72.00
65396;HTU21D;52004;45.136;39.010;2022-12-18T14:09:02;11.63;72.08
65396;HTU21D;52004;45.136;39.010;2022-12-18T14:11:28;11.54;72.19
65396;HTU21D;52004;45.136;39.010;2022-12-18T14:13:55;11.51;72.25
65396;HTU21D;52004;45.136;39.010;2022-12-18T14:16:21;11.49;72.25
65396;HTU21D;52004;45.136;39.010;2022-12-18T14:18:48;11.48;72.23
65396;HTU21D;52004;45.136;39.010;2022-12-18T14:21:19;11.47;72.15
65396;HTU21D;52004;45.136;39.010;2022-12-18T14:23:46;11.42;72.14
65396;HTU21D;52004;45.136;39.010;2022-12-18T14:28:52;11.30;72.09
65396;HTU21D;52004;45.136;39.010;2022-12-18T14:31:20;11.19;72.18
65396;HTU21D;52004;45.136;39.010;2022-12-18T14:33:47;11.07;72.35
65396;HTU21D;52004;45.136;39.010;2022-12-18T14:36:17;10.98;72.43
65396;HTU21D;52004;45.136;39.010;2022-12-18T14:38:43;10.93;72.51
65396;HTU21D;52004;45.136;39.010;2022-12-18T14:41:14;10.90;72.51
65396;HTU21D;52004;45.136;39.010;2022-12-18T14:43:41;10.88;72.51
65396;HTU21D;52004;45.136;39.010;2022-12-18T14:48:51;10.74;72.52
65396;HTU21D;52004;45.136;39.010;2022-12-18T14:51:21;0.00;72.57
65396;HTU21D;52004;45.136;39.010;2022-12-18T14:53:48;10.59;72.63
65396;HTU21D;52004;45.136;39.010;2022-12-18T14:58:44;10.51;72.64
65396;HTU21D;52004;45.136;39.010;2022-12-18T15:01:17;10.44;72.67
65396;HTU21D;52004;45.136;39.010;2022-12-18T15:03:43;0.00;72.68
65396;HTU21D;52004;45.136;39.010;2022-12-18T15:06:24;10.34;72.74
65396;HTU21D;52004;45.136;39.010;2022-12-18T15:08:51;10.30;72.74
65396;HTU21D;52004;45.136;39.010;2022-12-18T15:11:25;0.00;72.80
65396;HTU21D;52004;45.136;39.010;2022-12-18T15:13:51;10.28;72.79
65396;HTU21D;52004;45.136;39.010;2022-12-18T15:16:17;10.26;72.77
65396;HTU21D;52004;45.136;39.010;2022-12-18T15:18:43;10.23;72.69
65396;HTU21D;52004;45.136;39.010;2022-12-18T15:21:11;10.16;72.70
65396;HTU21D;52004;45.136;39.010;2022-12-18T15:26:09;9.96;72.83
65396;HTU21D;52004;45.136;39.010;2022-12-18T15:28:39;9.84;73.00
65396;HTU21D;52004;45.136;39.010;2022-12-18T15:33:41;9.78;73.03
65396;HTU21D;52004;45.136;39.010;2022-12-18T15:36:13;9.72;73.03
65396;HTU21D;52004;45.136;39.010;2022-12-18T15:38:39;9.64;73.01
65396;HTU21D;52004;45.136;39.010;2022-12-18T15:41:30;9.59;73.09
65396;HTU21D;52004;45.136;39.010;2022-12-18T15:43:57;9.53;73.12
65396;HTU21D;52004;45.136;39.010;2022-12-18T15:46:24;0.00;73.12
65396;HTU21D;52004;45.136;39.010;2022-12-18T15:48:51;0.00;73.19
65396;HTU21D;52004;45.136;39.010;2022-12-18T15:51:18;9.46;73.22
65396;HTU21D;52004;45.136;39.010;2022-12-18T15:53:46;9.45;73.20
65396;HTU21D;52004;45.136;39.010;2022-12-18T15:56:13;0.00;73.15
65396;HTU21D;52004;45.136;39.010;2022-12-18T15:58:58;9.33;73.14
65396;HTU21D;52004;45.136;39.010;2022-12-18T16:01:25;9.26;73.18
65396;HTU21D;52004;45.136;39.010;2022-12-18T16:03:51;9.15;73.22
65396;HTU21D;52004;45.136;39.010;2022-12-18T16:06:19;9.03;73.35
65396;HTU21D;52004;45.136;39.010;2022-12-18T16:08:45;8.94;73.46
65396;HTU21D;52004;45.136;39.010;2022-12-18T16:11:19;8.89;73.54
65396;HTU21D;52004;45.136;39.010;2022-12-18T16:13:45;8.82;73.59
65396;HTU21D;52004;45.136;39.010;2022-12-18T16:16:11;8.79;73.63
65396;HTU21D;52004;45.136;39.010;2022-12-18T16:18:37;8.71;73.67
65396;HTU21D;52004;45.136;39.010;2022-12-18T16:21:03;8.67;73.70
65396;HTU21D;52004;45.136;39.010;2022-12-18T16:23:29;8.64;73.70
65396;HTU21D;52004;45.136;39.010;2022-12-18T16:26:20;8.65;73.61
65396;HTU21D;52004;45.136;39.010;2022-12-18T16:28:46;8.60;73.56
65396;HTU21D;52004;45.136;39.010;2022-12-18T16:31:12;8.52;73.57
65396;HTU21D;52004;45.136;39.010;2022-12-18T16:33:37;8.47;73.61
65396;HTU21D;52004;45.136;39.010;2022-12-18T16:36:04;8.41;73.67
65396;HTU21D;52004;45.136;39.010;2022-12-18T16:38:29;8.36;73.70
65396;HTU21D;52004;45.136;39.010;2022-12-18T16:40:55;8.34;73.65
65396;HTU21D;52004;45.136;39.010;2022-12-18T16:43:40;8.30;73.64
65396;HTU21D;52004;45.136;39.010;2022-12-18T16:46:05;8.27;73.60
65396;HTU21D;52004;45.136;39.010;2022-12-18T16:48:31;8.26;73.60
65396;HTU21D;52004;45.136;39.010;2022-12-18T16:51:01;8.22;73.60
65396;HTU21D;52004;45.136;39.010;2022-12-18T16:53:27;8.20;73.61
65396;HTU21D;52004;45.136;39.010;2022-12-18T16:55:56;8.19;73.57
65396;HTU21D;52004;45.136;39.010;2022-12-18T16:58:22;0.00;73.56
65396;HTU21D;52004;45.136;39.010;2022-12-18T17:01:12;8.16;73.56
65396;HTU21D;52004;45.136;39.010;2022-12-18T17:04:05;8.14;73.56
65396;HTU21D;52004;45.136;39.010;2022-12-18T17:06:56;8.11;73.58
65396;HTU21D;52004;45.136;39.010;2022-12-18T17:09:22;8.11;73.60
65396;HTU21D;52004;45.136;39.010;2022-12-18T17:11:51;8.11;73.62
65396;HTU21D;52004;45.136;39.010;2022-12-18T17:14:41;8.12;73.54
65396;HTU21D;52004;45.136;39.010;2022-12-18T17:17:07;8.09;73.55